Hueysville, KY (41640)

3:00 AM EDT on September 27, 2016 (GMT -0400)
Middle Creek UPS Area | | Change Station

Elev 699 ft 37.65 °N, 82.88 °W | Updated 2 minutes ago

Clear
Clear
55.2 °F
Feels Like 55.2 °F
N
0.0
Wind Variable Wind from East

Today
High -- | Low -- °F
--% Chance of Precip.
Yesterday
High -- | Low -- °F
Precip. -- in
Pressure 30.08 in
Visibility 10.0 miles
Clouds Clear
Dew Point 54 °F
Humidity 97%
Rainfall 0.00 in
Snow Depth Not available.
7:23 AM 7:19 PM
Waning Crescent, 13% visible
METAR KSJS 270655Z AUTO 00000KT 10SM CLR 13/13 A3008 RMK AO2 T01300128
Pressure 30.08 in
Visibility 10.0 miles
Clouds Clear
Dew Point 54 °F
Humidity 97%
Rainfall 0.00 in
Snow Depth Not available.
7:23 AM 7:19 PM
Waning Crescent, 13% visible
METAR KSJS 270655Z AUTO 00000KT 10SM CLR 13/13 A3008 RMK AO2 T01300128

10-Day Weather Forecast

Almanac

Astronomy

Sep. 27, 2016 Rise Set
Actual Time
Civil Twilight
Nautical Twilight
Astronomical Twilight
Moon
Length of Visible Light
Length of Day
Tomorrow will be .
, % of the Moon is Illuminated

Today's Extremes

State Highs State Lows

Community

WunderPhotos

Upload Photos

1,942,040 photos uploaded!

WunderBlog® & News

Nearby

Air Quality

  Air Quality AQ Index Pollutant
Not available.

Snow Depth

Station Depth Elevation

Earthquake Activity

City Distance Mag. Time & Date
Minimum magnitude displayed is 2.5.

Coastal Water Temperatures

Place Temperature

Stations

Nearby Weather Stations

Station Location Temp. Windchill Dew Point Humidity Wind Precip. Elev Updated Type
                   

Watches & Warnings

There are currently no watches in effect.